Time;durP1;ratioP1;P1;durP2;ratioP2;P2;SDS_P1;SDS_P2;PMS_P1;PMS_P2;Temp;Humidity;BMP_temperature;BMP_pressure;BME280_temperature;BME280_humidity;BME280_pressure;Samples;Min_cycle;Max_cycle;Signal;HPM_P1;HPM_P2
2022/08/29 00:03:17;;;;;;;;;;;;;;;;;;8368901;28;28579;-77
2022/08/29 00:07:17;;;;;;;;;;;;;;;;;;8365010;28;28464;-76
2022/08/29 00:11:17;;;;;;;;;;;;;;;;;;8383613;27;27611;-76
2022/08/29 00:15:17;;;;;;;;;;;;;;;;;;8378697;28;28096;-76
2022/08/29 00:19:17;;;;;;;;;;;;;;;;;;8376102;27;27945;-76
2022/08/29 00:23:17;;;;;;;;;;;;;;;;;;8384094;28;27965;-77
2022/08/29 00:27:18;;;;;;;;;;;;;;;;;;8382414;28;27686;-76
2022/08/29 00:31:18;;;;;;;;;;;;;;;;;;8381235;27;27613;-76
2022/08/29 00:35:18;;;;;;;;;;;;;;;;;;8382805;28;27296;-76
2022/08/29 00:39:18;;;;;;;;;;;;;;;;;;8366614;28;28169;-75
2022/08/29 00:43:18;;;;;;;;;;;;;;;;;;8386721;28;27439;-76
2022/08/29 00:47:18;;;;;;;;;;;;;;;;;;8370603;28;29430;-76
2022/08/29 00:51:19;;;;;;;;;;;;;;;;;;8370590;28;29432;-77
2022/08/29 00:55:20;;;;;;;;;;;;;;;;;;8365464;28;29303;-77
2022/08/29 00:59:20;;;;;;;;;;;;;;;;;;8359768;28;29017;-76
2022/08/29 01:03:20;;;;;;;;;;;;;;;;;;8386933;28;28485;-76
2022/08/29 01:07:20;;;;;;;;;;;;;;;;;;8362591;27;28898;-76
2022/08/29 01:15:39;;;;;;;;;;;;;;;;;;8375560;27;27983;-77
2022/08/29 01:19:39;;;;;;;;;;;;;;;;;;8378560;27;28088;-76
2022/08/29 01:23:40;;;;;;;;;;;;;;;;;;8376951;27;27237;-75
2022/08/29 01:27:40;;;;;;;;;;;;;;;;;;8376896;28;27229;-75
2022/08/29 01:31:40;;;;;;;;;;;;;;;;;;8375061;28;27985;-76
2022/08/29 01:35:42;;;;;;;;;;;;;;;;;;8384525;27;27636;-76
2022/08/29 01:39:42;;;;;;;;;;;;;;;;;;8382709;28;29096;-76
2022/08/29 01:43:42;;;;;;;;;;;;;;;;;;8390502;27;28932;-76
2022/08/29 01:47:43;;;;;;;;;;;;;;;;;;8387887;27;28442;-76
2022/08/29 01:51:43;;;;;;;;;;;;;;;;;;8378231;28;28960;-76
2022/08/29 01:55:43;;;;;;;;;;;;;;;;;;8388132;27;28480;-76
2022/08/29 01:59:43;;;;;;;;;;;;;;;;;;8388151;27;27563;-76
2022/08/29 02:03:44;;;;;;;;;;;;;;;;;;8369945;27;29469;-76
2022/08/29 02:07:44;;;;;;;;;;;;;;;;;;8379284;28;28422;-76
2022/08/29 02:11:45;;;;;;;;;;;;;;;;;;8371431;28;29528;-76
2022/08/29 02:15:45;;;;;;;;;;;;;;;;;;8387865;27;27437;-75
2022/08/29 02:19:45;;;;;;;;;;;;;;;;;;8385890;28;28367;-75
2022/08/29 02:23:45;;;;;;;;;;;;;;;;;;8387528;28;28123;-76
2022/08/29 02:27:45;;;;;;;;;;;;;;;;;;8388040;27;27543;-76
2022/08/29 02:31:46;;;;;;;;;;;;;;;;;;8374388;28;28780;-74
2022/08/29 02:35:46;;;;;;;;;;;;;;;;;;8388795;28;28069;-75
2022/08/29 02:39:46;;;;;;;;;;;;;;;;;;8390066;27;27924;-74
2022/08/29 02:43:46;;;;;;;;;;;;;;;;;;8390095;27;27750;-75
2022/08/29 02:47:46;;;;;;;;;;;;;;;;;;8386039;27;27438;-76
2022/08/29 02:51:46;;;;;;;;;;;;;;;;;;8385028;27;27969;-76
2022/08/29 02:55:47;;;;;;;;;;;;;;;;;;8369806;28;27514;-76
2022/08/29 02:59:47;;;;;;;;;;;;;;;;;;8361176;28;30740;-76
2022/08/29 03:03:47;;;;;;;;;;;;;;;;;;8377780;27;28749;-77
2022/08/29 03:07:47;;;;;;;;;;;;;;;;;;8378333;27;28114;-74
2022/08/29 03:11:47;;;;;;;;;;;;;;;;;;8368709;28;28309;-77
2022/08/29 03:15:47;;;;;;;;;;;;;;;;;;8367418;28;28674;-76
2022/08/29 03:19:48;;;;;;;;;;;;;;;;;;8383122;28;28115;-75
2022/08/29 03:23:48;;;;;;;;;;;;;;;;;;8382270;28;27139;-75
2022/08/29 03:27:48;;;;;;;;;;;;;;;;;;8364831;28;29286;-76
2022/08/29 03:31:48;;;;;;;;;;;;;;;;;;8378986;28;27462;-76
2022/08/29 03:35:48;;;;;;;;;;;;;;;;;;8366004;27;28399;-76
2022/08/29 03:39:48;;;;;;;;;;;;;;;;;;8367040;28;28527;-77
2022/08/29 03:43:49;;;;;;;;;;;;;;;;;;8377763;27;28244;-76
2022/08/29 03:47:50;;;;;;;;;;;;;;;;;;8368886;27;27394;-75
2022/08/29 03:51:51;;;;;;;;;;;;;;;;;;8369376;28;27447;-76
2022/08/29 03:55:51;;;;;;;;;;;;;;;;;;8356223;28;29147;-74
2022/08/29 03:59:51;;;;;;;;;;;;;;;;;;8361587;28;30083;-77
2022/08/29 04:03:51;;;;;;;;;;;;;;;;;;8363674;28;28441;-74
2022/08/29 04:07:51;;;;;;;;;;;;;;;;;;8382883;28;28451;-76
2022/08/29 04:11:51;;;;;;;;;;;;;;;;;;8378506;28;27378;-76
2022/08/29 04:15:52;;;;;;;;;;;;;;;;;;8360245;28;28191;-76
2022/08/29 04:19:52;;;;;;;;;;;;;;;;;;8384024;27;27970;-76
2022/08/29 04:23:52;;;;;;;;;;;;;;;;;;8370270;28;28664;-76
2022/08/29 04:27:53;;;;;;;;;;;;;;;;;;8371123;28;28453;-76
2022/08/29 04:31:53;;;;;;;;;;;;;;;;;;8381595;28;28384;-76
2022/08/29 04:35:53;;;;;;;;;;;;;;;;;;8378701;28;27423;-76
2022/08/29 04:39:53;;;;;;;;;;;;;;;;;;8368792;27;29115;-76
2022/08/29 04:43:53;;;;;;;;;;;;;;;;;;8379477;28;29577;-77
2022/08/29 04:47:53;;;;;;;;;;;;;;;;;;8382430;28;27939;-76
2022/08/29 04:51:53;;;;;;;;;;;;;;;;;;8360250;28;29034;-76
2022/08/29 04:55:54;;;;;;;;;;;;;;;;;;8381630;28;28648;-76
2022/08/29 04:59:54;;;;;;;;;;;;;;;;;;8364840;28;28016;-76
2022/08/29 05:03:55;;;;;;;;;;;;;;;;;;8358267;28;28307;-76
2022/08/29 05:07:55;;;;;;;;;;;;;;;;;;8377277;27;27374;-76
2022/08/29 05:11:55;;;;;;;;;;;;;;;;;;8379059;27;28796;-76
2022/08/29 05:15:55;;;;;;;;;;;;;;;;;;8364680;28;28279;-77
2022/08/29 05:19:55;;;;;;;;;;;;;;;;;;8360518;27;28410;-76
2022/08/29 05:23:56;;;;;;;;;;;;;;;;;;8379334;28;27636;-76
2022/08/29 05:27:56;;;;;;;;;;;;;;;;;;8367290;28;28600;-76
2022/08/29 05:31:56;;;;;;;;;;;;;;;;;;8380878;27;27113;-76
2022/08/29 05:35:56;;;;;;;;;;;;;;;;;;8378793;28;27348;-77
2022/08/29 05:39:56;;;;;;;;;;;;;;;;;;8377561;28;28147;-76
2022/08/29 05:43:56;;;;;;;;;;;;;;;;;;8384194;27;27688;-77
2022/08/29 05:47:56;;;;;;;;;;;;;;;;;;8359694;28;28347;-76
2022/08/29 05:51:59;;;;;;;;;;;;;;;;;;8379123;28;28045;-77
2022/08/29 05:55:59;;;;;;;;;;;;;;;;;;8367043;28;28277;-76
2022/08/29 05:59:59;;;;;;;;;;;;;;;;;;8380678;28;27460;-76
2022/08/29 06:03:59;;;;;;;;;;;;;;;;;;8377487;28;28093;-76
2022/08/29 06:08:00;;;;;;;;;;;;;;;;;;8379322;27;27610;-76
2022/08/29 06:12:00;;;;;;;;;;;;;;;;;;8374327;27;28622;-77
2022/08/29 06:16:00;;;;;;;;;;;;;;;;;;8386199;28;27930;-76
2022/08/29 06:20:00;;;;;;;;;;;;;;;;;;8377308;28;29029;-77
2022/08/29 06:24:00;;;;;;;;;;;;;;;;;;8389068;28;28173;-77
2022/08/29 06:28:00;;;;;;;;;;;;;;;;;;8385393;28;28823;-76
2022/08/29 06:32:00;;;;;;;;;;;;;;;;;;8390039;28;27454;-77
2022/08/29 06:36:01;;;;;;;;;;;;;;;;;;8386727;28;28152;-76
2022/08/29 06:40:01;;;;;;;;;;;;;;;;;;8383208;28;27408;-76
2022/08/29 06:44:01;;;;;;;;;;;;;;;;;;8384016;28;28078;-77
2022/08/29 06:48:01;;;;;;;;;;;;;;;;;;8383387;27;27497;-77
2022/08/29 06:52:01;;;;;;;;;;;;;;;;;;8380260;27;27897;-76
2022/08/29 06:56:01;;;;;;;;;;;;;;;;;;8392100;27;27545;-76
2022/08/29 07:00:03;;;;;;;;;;;;;;;;;;8367594;28;28756;-77
2022/08/29 07:04:03;;;;;;;;;;;;;;;;;;8385935;28;28049;-76
2022/08/29 07:08:03;;;;;;;;;;;;;;;;;;8368299;27;28270;-77
2022/08/29 07:12:04;;;;;;;;;;;;;;;;;;8380075;28;27968;-76
2022/08/29 07:16:04;;;;;;;;;;;;;;;;;;8380708;27;27386;-76
2022/08/29 07:20:05;;;;;;;;;;;;;;;;;;8367724;28;28667;-76
2022/08/29 07:24:06;;;;;;;;;;;;;;;;;;8384488;28;27456;-76
2022/08/29 07:28:06;;;;;;;;;;;;;;;;;;8367665;28;29764;-76
2022/08/29 07:32:06;;;;;;;;;;;;;;;;;;8389575;27;27180;-76
2022/08/29 07:36:06;;;;;;;;;;;;;;;;;;8382634;28;27341;-77
2022/08/29 07:40:06;;;;;;;;;;;;;;;;;;8381078;27;27311;-76
2022/08/29 07:44:06;;;;;;;;;;;;;;;;;;8380157;27;28291;-76
2022/08/29 07:48:06;;;;;;;;;;;;;;;;;;8380083;27;28467;-77
2022/08/29 07:52:06;;;;;;;;;;;;;;;;;;8367355;28;28558;-75
2022/08/29 07:56:07;;;;;;;;;;;;;;;;;;8382079;28;27219;-76
2022/08/29 08:00:11;;;;;;;;;;;;;;;;;;8382702;28;28129;-76
2022/08/29 08:04:11;;;;;;;;;;;;;;;;;;8368525;28;28471;-76
2022/08/29 08:08:11;;;;;;;;;;;;;;;;;;8377771;28;27986;-76
2022/08/29 08:12:11;;;;;;;;;;;;;;;;;;8373853;27;28962;-76
2022/08/29 08:16:11;;;;;;;;;;;;;;;;;;8360791;28;28191;-76
2022/08/29 08:20:11;;;;;;;;;;;;;;;;;;8379923;27;27592;-76
2022/08/29 08:24:11;;;;;;;;;;;;;;;;;;8378974;27;27995;-76
2022/08/29 08:28:12;;;;;;;;;;;;;;;;;;8378067;28;27197;-76
2022/08/29 08:32:12;;;;;;;;;;;;;;;;;;8385050;28;27489;-76
2022/08/29 08:36:12;;;;;;;;;;;;;;;;;;8387238;28;28037;-76
2022/08/29 08:40:15;;;;;;;;;;;;;;;;;;8382583;28;27563;-76
2022/08/29 08:44:15;;;;;;;;;;;;;;;;;;8365154;28;28687;-77
2022/08/29 08:48:15;;;;;;;;;;;;;;;;;;8379525;27;27231;-77
2022/08/29 08:52:15;;;;;;;;;;;;;;;;;;8382100;28;28852;-76
2022/08/29 08:56:15;;;;;;;;;;;;;;;;;;8367079;28;28320;-77
2022/08/29 09:00:16;;;;;;;;;;;;;;;;;;8363082;28;28152;-77
2022/08/29 09:04:16;;;;;;;;;;;;;;;;;;8367253;28;29245;-79
2022/08/29 09:08:16;;;;;;;;;;;;;;;;;;8366773;28;27647;-78
2022/08/29 09:12:16;;;;;;;;;;;;;;;;;;8366187;28;27357;-76
2022/08/29 09:16:16;;;;;;;;;;;;;;;;;;8370161;28;27466;-77
2022/08/29 09:20:17;;;;;;;;;;;;;;;;;;8366500;28;27333;-78
2022/08/29 09:24:17;;;;;;;;;;;;;;;;;;8378741;28;28287;-77
2022/08/29 09:28:17;;;;;;;;;;;;;;;;;;8363391;28;27522;-78
2022/08/29 09:32:17;;;;;;;;;;;;;;;;;;8380828;28;27150;-77
2022/08/29 09:36:18;;;;;;;;;;;;;;;;;;8367175;28;28254;-76
2022/08/29 09:40:19;;;;;;;;;;;;;;;;;;8366967;28;28528;-77
2022/08/29 09:44:19;;;;;;;;;;;;;;;;;;8384381;28;27356;-77
2022/08/29 09:48:19;;;;;;;;;;;;;;;;;;8382134;28;28148;-78
2022/08/29 09:52:19;;;;;;;;;;;;;;;;;;8390395;27;27316;-77
2022/08/29 09:56:19;;;;;;;;;;;;;;;;;;8391471;28;27696;-77
2022/08/29 10:00:19;;;;;;;;;;;;;;;;;;8387178;27;28260;-77
2022/08/29 10:04:23;;;;;;;;;;;;;;;;;;8372782;27;29441;-77
2022/08/29 10:08:23;;;;;;;;;;;;;;;;;;8392975;28;27116;-77
2022/08/29 10:12:23;;;;;;;;;;;;;;;;;;8369281;28;28692;-79
2022/08/29 10:16:23;;;;;;;;;;;;;;;;;;8383452;28;28530;-77
2022/08/29 10:20:23;;;;;;;;;;;;;;;;;;8390255;27;27939;-77
2022/08/29 10:24:24;;;;;;;;;;;;;;;;;;8387597;28;27524;-78
2022/08/29 10:28:24;;;;;;;;;;;;;;;;;;8388530;28;27264;-77
2022/08/29 10:32:24;;;;;;;;;;;;;;;;;;8383340;27;27705;-78
2022/08/29 10:36:24;;;;;;;;;;;;;;;;;;8386367;28;27343;-78
2022/08/29 10:40:24;;;;;;;;;;;;;;;;;;8385514;27;27475;-77
2022/08/29 10:44:25;;;;;;;;;;;;;;;;;;8368561;28;28565;-78
2022/08/29 10:48:25;;;;;;;;;;;;;;;;;;8367024;28;28621;-80
2022/08/29 10:52:25;;;;;;;;;;;;;;;;;;8386994;27;28178;-78
2022/08/29 10:56:25;;;;;;;;;;;;;;;;;;8379097;27;27287;-78
2022/08/29 11:00:25;;;;;;;;;;;;;;;;;;8385260;27;28813;-77
2022/08/29 11:04:25;;;;;;;;;;;;;;;;;;8371940;27;28463;-77
2022/08/29 11:08:26;;;;;;;;;;;;;;;;;;8384206;27;27403;-79
2022/08/29 11:12:26;;;;;;;;;;;;;;;;;;8381321;27;27731;-78
2022/08/29 11:16:26;;;;;;;;;;;;;;;;;;8382247;27;27961;-78
2022/08/29 11:20:26;;;;;;;;;;;;;;;;;;8378199;27;27938;-78
2022/08/29 11:24:26;;;;;;;;;;;;;;;;;;8382925;27;28188;-78
2022/08/29 11:28:27;;;;;;;;;;;;;;;;;;8379692;28;27100;-77
2022/08/29 11:32:27;;;;;;;;;;;;;;;;;;8384292;27;28308;-78
2022/08/29 11:36:27;;;;;;;;;;;;;;;;;;8386399;28;28044;-77
2022/08/29 11:40:27;;;;;;;;;;;;;;;;;;8381114;28;28927;-77
2022/08/29 11:44:28;;;;;;;;;;;;;;;;;;8361154;27;29280;-77
2022/08/29 11:48:28;;;;;;;;;;;;;;;;;;8371412;28;28179;-77
2022/08/29 11:52:28;;;;;;;;;;;;;;;;;;8377676;28;28496;-77
2022/08/29 11:56:29;;;;;;;;;;;;;;;;;;8382697;27;27481;-77
2022/08/29 12:00:29;;;;;;;;;;;;;;;;;;8384202;28;27655;-77
2022/08/29 12:04:30;;;;;;;;;;;;;;;;;;8370319;28;28513;-78
2022/08/29 12:08:31;;;;;;;;;;;;;;;;;;8386147;28;27432;-78
2022/08/29 12:12:32;;;;;;;;;;;;;;;;;;8373466;27;28474;-77
2022/08/29 12:16:32;;;;;;;;;;;;;;;;;;8366443;28;29193;-77
2022/08/29 12:20:35;;;;;;;;;;;;;;;;;;8364278;28;29299;-77
2022/08/29 12:24:35;;;;;;;;;;;;;;;;;;8369573;28;28624;-77
2022/08/29 12:28:35;;;;;;;;;;;;;;;;;;8387098;28;27482;-77
2022/08/29 12:32:36;;;;;;;;;;;;;;;;;;8383894;27;27921;-77
2022/08/29 12:36:36;;;;;;;;;;;;;;;;;;8373581;28;28517;-77
2022/08/29 12:40:36;;;;;;;;;;;;;;;;;;8379534;28;27313;-77
2022/08/29 12:44:36;;;;;;;;;;;;;;;;;;8379938;27;28076;-77
2022/08/29 12:48:36;;;;;;;;;;;;;;;;;;8369623;28;28500;-77
2022/08/29 12:52:36;;;;;;;;;;;;;;;;;;8382017;28;27594;-77
2022/08/29 12:56:37;;;;;;;;;;;;;;;;;;8360153;27;28916;-77
2022/08/29 13:00:37;;;;;;;;;;;;;;;;;;8374716;27;27502;-77
2022/08/29 13:04:37;;;;;;;;;;;;;;;;;;8365442;28;28595;-77
2022/08/29 13:08:38;;;;;;;;;;;;;;;;;;8362672;28;28312;-77
2022/08/29 13:12:38;;;;;;;;;;;;;;;;;;8380056;28;27078;-77
2022/08/29 13:16:38;;;;;;;;;;;;;;;;;;8377130;28;28152;-78
2022/08/29 13:20:41;;;;;;;;;;;;;;;;;;8362290;28;29365;-78
2022/08/29 13:24:41;;;;;;;;;;;;;;;;;;8362290;27;29598;-77
2022/08/29 13:28:42;;;;;;;;;;;;;;;;;;8364038;28;28494;-77
2022/08/29 13:32:42;;;;;;;;;;;;;;;;;;8361126;28;28527;-77
2022/08/29 13:36:42;;;;;;;;;;;;;;;;;;8381691;28;27495;-76
2022/08/29 13:40:42;;;;;;;;;;;;;;;;;;8377281;28;28168;-81
2022/08/29 13:44:42;;;;;;;;;;;;;;;;;;8362121;28;28430;-77
2022/08/29 13:48:43;;;;;;;;;;;;;;;;;;8386467;28;27390;-78
2022/08/29 13:52:43;;;;;;;;;;;;;;;;;;8382375;28;27507;-78
2022/08/29 13:56:43;;;;;;;;;;;;;;;;;;8382564;28;27446;-79
2022/08/29 14:00:43;;;;;;;;;;;;;;;;;;8373674;27;28227;-75
2022/08/29 14:04:46;;;;;;;;;;;;;;;;;;8360864;27;28660;-77
2022/08/29 14:08:47;;;;;;;;;;;;;;;;;;8355118;27;28033;-76
2022/08/29 14:12:47;;;;;;;;;;;;;;;;;;8358940;27;28075;-76
2022/08/29 14:16:47;;;;;;;;;;;;;;;;;;8360027;28;28205;-77
2022/08/29 14:20:47;;;;;;;;;;;;;;;;;;8356028;28;28350;-77
2022/08/29 14:24:50;;;;;;;;;;;;;;;;;;8373244;28;27449;-78
2022/08/29 14:28:51;;;;;;;;;;;;;;;;;;8374289;28;28654;-78
2022/08/29 14:32:51;;;;;;;;;;;;;;;;;;8367989;28;27459;-78
2022/08/29 14:36:51;;;;;;;;;;;;;;;;;;8368077;28;27590;-79
2022/08/29 14:40:51;;;;;;;;;;;;;;;;;;8353581;27;28529;-77
2022/08/29 14:44:51;;;;;;;;;;;;;;;;;;8367877;27;28336;-77
2022/08/29 14:48:52;;;;;;;;;;;;;;;;;;8374398;27;28072;-78
2022/08/29 14:52:52;;;;;;;;;;;;;;;;;;8358242;27;28190;-78
2022/08/29 14:56:52;;;;;;;;;;;;;;;;;;8367328;28;28350;-78
2022/08/29 15:00:52;;;;;;;;;;;;;;;;;;8366773;27;27624;-79
2022/08/29 15:04:55;;;;;;;;;;;;;;;;;;8356754;28;28560;-79
2022/08/29 15:08:55;;;;;;;;;;;;;;;;;;8369227;28;27464;-79
2022/08/29 15:12:56;;;;;;;;;;;;;;;;;;8371857;27;28374;-78
2022/08/29 15:16:56;;;;;;;;;;;;;;;;;;8357730;27;28928;-78
2022/08/29 15:20:56;;;;;;;;;;;;;;;;;;8361198;28;27903;-77
2022/08/29 15:24:56;;;;;;;;;;;;;;;;;;8365870;28;27454;-78
2022/08/29 15:28:56;;;;;;;;;;;;;;;;;;8368168;27;27836;-77
2022/08/29 15:32:56;;;;;;;;;;;;;;;;;;8376221;27;27466;-77
2022/08/29 15:36:57;;;;;;;;;;;;;;;;;;8371353;28;28093;-77
2022/08/29 15:40:57;;;;;;;;;;;;;;;;;;8372563;28;28232;-77
2022/08/29 15:44:57;;;;;;;;;;;;;;;;;;8373052;27;27983;-78
2022/08/29 15:48:57;;;;;;;;;;;;;;;;;;8372498;27;27499;-77
2022/08/29 15:52:58;;;;;;;;;;;;;;;;;;8360953;27;30615;-77
2022/08/29 15:56:58;;;;;;;;;;;;;;;;;;8375410;28;27615;-78
2022/08/29 16:00:58;;;;;;;;;;;;;;;;;;8371418;28;28455;-77
2022/08/29 16:05:00;;;;;;;;;;;;;;;;;;8364025;28;28713;-77
2022/08/29 16:09:00;;;;;;;;;;;;;;;;;;8354080;28;28739;-77
2022/08/29 16:13:01;;;;;;;;;;;;;;;;;;8372449;28;27506;-77
2022/08/29 16:17:01;;;;;;;;;;;;;;;;;;8369508;28;27642;-78
2022/08/29 16:21:01;;;;;;;;;;;;;;;;;;8355543;28;28821;-76
2022/08/29 16:25:01;;;;;;;;;;;;;;;;;;8355915;28;29119;-78
2022/08/29 16:29:01;;;;;;;;;;;;;;;;;;8358977;28;28268;-77
2022/08/29 16:33:02;;;;;;;;;;;;;;;;;;8359821;27;28469;-78
2022/08/29 16:37:02;;;;;;;;;;;;;;;;;;8362941;28;28766;-77
2022/08/29 16:41:02;;;;;;;;;;;;;;;;;;8371329;28;28406;-78
2022/08/29 16:45:04;;;;;;;;;;;;;;;;;;8361875;27;29069;-78
2022/08/29 16:49:05;;;;;;;;;;;;;;;;;;8358926;27;28390;-77
2022/08/29 16:53:05;;;;;;;;;;;;;;;;;;8360212;28;28494;-79
2022/08/29 16:57:05;;;;;;;;;;;;;;;;;;8376053;28;27997;-78
2022/08/29 17:01:05;;;;;;;;;;;;;;;;;;8374033;28;27384;-79
2022/08/29 17:05:05;;;;;;;;;;;;;;;;;;8379261;28;27628;-79
2022/08/29 17:17:05;;;;;;;;;;;;;;;;;;8370046;27;27583;-80
2022/08/29 17:21:06;;;;;;;;;;;;;;;;;;8375629;28;27251;-79
2022/08/29 17:25:06;;;;;;;;;;;;;;;;;;8376446;27;27367;-80
2022/08/29 17:29:07;;;;;;;;;;;;;;;;;;8377734;27;27447;-80
2022/08/29 17:33:09;;;;;;;;;;;;;;;;;;8380023;27;27209;-81
2022/08/29 17:37:09;;;;;;;;;;;;;;;;;;8377489;28;27658;-79
2022/08/29 17:41:09;;;;;;;;;;;;;;;;;;8380097;28;28468;-80
2022/08/29 17:45:09;;;;;;;;;;;;;;;;;;8379276;28;27601;-80
2022/08/29 17:49:10;;;;;;;;;;;;;;;;;;8378642;28;27596;-80
2022/08/29 17:53:10;;;;;;;;;;;;;;;;;;8380023;28;27976;-81
2022/08/29 17:57:10;;;;;;;;;;;;;;;;;;8365433;27;28229;-81
2022/08/29 18:01:11;;;;;;;;;;;;;;;;;;8381253;27;27930;-81
2022/08/29 18:05:14;;;;;;;;;;;;;;;;;;8381597;28;27390;-81
2022/08/29 18:09:14;;;;;;;;;;;;;;;;;;8362935;28;28348;-81
2022/08/29 18:13:14;;;;;;;;;;;;;;;;;;8362342;28;28888;-81
2022/08/29 18:17:14;;;;;;;;;;;;;;;;;;8378822;28;27330;-79
2022/08/29 18:21:14;;;;;;;;;;;;;;;;;;8380817;28;27620;-80
2022/08/29 18:25:14;;;;;;;;;;;;;;;;;;8385070;27;27458;-80
2022/08/29 18:29:14;;;;;;;;;;;;;;;;;;8385626;27;27692;-80
2022/08/29 18:33:15;;;;;;;;;;;;;;;;;;8366540;27;28543;-79
2022/08/29 18:37:15;;;;;;;;;;;;;;;;;;8389090;27;28199;-79
2022/08/29 18:41:15;;;;;;;;;;;;;;;;;;8374458;28;29572;-80
2022/08/29 18:45:15;;;;;;;;;;;;;;;;;;8373034;27;28455;-80
2022/08/29 18:49:15;;;;;;;;;;;;;;;;;;8367215;28;29460;-79
2022/08/29 18:53:15;;;;;;;;;;;;;;;;;;8366633;28;28501;-80
2022/08/29 18:57:15;;;;;;;;;;;;;;;;;;8382683;28;27698;-80
2022/08/29 19:01:16;;;;;;;;;;;;;;;;;;8372191;28;28282;-80
2022/08/29 19:05:17;;;;;;;;;;;;;;;;;;8367756;27;28166;-81
2022/08/29 19:09:17;;;;;;;;;;;;;;;;;;8361987;28;29451;-80
2022/08/29 19:13:17;;;;;;;;;;;;;;;;;;8377974;28;27947;-80
2022/08/29 19:17:17;;;;;;;;;;;;;;;;;;8381329;28;28004;-80
2022/08/29 19:21:17;;;;;;;;;;;;;;;;;;8365999;28;28310;-79
2022/08/29 19:25:18;;;;;;;;;;;;;;;;;;8386965;27;28282;-79
2022/08/29 19:29:18;;;;;;;;;;;;;;;;;;8386884;28;27296;-80
2022/08/29 19:33:18;;;;;;;;;;;;;;;;;;8385627;27;27458;-80
2022/08/29 19:37:18;;;;;;;;;;;;;;;;;;8380413;28;28459;-80
2022/08/29 19:41:18;;;;;;;;;;;;;;;;;;8362787;27;29152;-79
2022/08/29 19:45:19;;;;;;;;;;;;;;;;;;8380185;27;27381;-79
2022/08/29 19:49:19;;;;;;;;;;;;;;;;;;8381993;27;27453;-78
2022/08/29 19:53:19;;;;;;;;;;;;;;;;;;8377919;28;28133;-80
2022/08/29 19:57:19;;;;;;;;;;;;;;;;;;8359049;27;28374;-80
2022/08/29 20:01:20;;;;;;;;;;;;;;;;;;8374304;28;27464;-80
2022/08/29 20:05:20;;;;;;;;;;;;;;;;;;8376141;27;27957;-80
2022/08/29 20:09:21;;;;;;;;;;;;;;;;;;8380136;27;27945;-80
2022/08/29 20:13:21;;;;;;;;;;;;;;;;;;8375443;27;29557;-80
2022/08/29 20:17:21;;;;;;;;;;;;;;;;;;8378463;27;27490;-80
2022/08/29 20:21:21;;;;;;;;;;;;;;;;;;8370141;28;28141;-80
2022/08/29 20:25:21;;;;;;;;;;;;;;;;;;8369998;28;28636;-79
2022/08/29 20:29:21;;;;;;;;;;;;;;;;;;8373048;27;27822;-79
2022/08/29 20:33:21;;;;;;;;;;;;;;;;;;8377033;27;29086;-80
2022/08/29 20:37:22;;;;;;;;;;;;;;;;;;8378324;28;27396;-79
2022/08/29 20:41:22;;;;;;;;;;;;;;;;;;8362691;28;28296;-79
2022/08/29 20:45:25;;;;;;;;;;;;;;;;;;8355007;28;46692;-79
2022/08/29 20:49:25;;;;;;;;;;;;;;;;;;8374619;27;29483;-79
2022/08/29 20:53:25;;;;;;;;;;;;;;;;;;8374498;27;28357;-81
2022/08/29 20:57:26;;;;;;;;;;;;;;;;;;8377584;28;27580;-79
2022/08/29 21:01:26;;;;;;;;;;;;;;;;;;8378062;28;27932;-80
2022/08/29 21:05:41;;;;;;;;;;;;;;;;;;8374938;27;27485;-80
2022/08/29 21:09:44;;;;;;;;;;;;;;;;;;8379090;28;28360;-81
2022/08/29 21:13:44;;;;;;;;;;;;;;;;;;8376481;27;27583;-80
2022/08/29 21:17:44;;;;;;;;;;;;;;;;;;8379234;28;28693;-80
2022/08/29 21:21:44;;;;;;;;;;;;;;;;;;8376847;27;27486;-81
2022/08/29 21:25:45;;;;;;;;;;;;;;;;;;8380529;28;27555;-80
2022/08/29 21:29:45;;;;;;;;;;;;;;;;;;8368770;28;28735;-81
2022/08/29 21:33:45;;;;;;;;;;;;;;;;;;8379649;28;27426;-80
2022/08/29 21:37:46;;;;;;;;;;;;;;;;;;8378938;28;28396;-80
2022/08/29 21:41:46;;;;;;;;;;;;;;;;;;8368617;28;28471;-79
2022/08/29 21:45:46;;;;;;;;;;;;;;;;;;8381313;28;27554;-80
2022/08/29 21:49:50;;;;;;;;;;;;;;;;;;8382505;28;27996;-80
2022/08/29 21:53:50;;;;;;;;;;;;;;;;;;8368227;28;28683;-79
2022/08/29 22:01:50;;;;;;;;;;;;;;;;;;8388377;27;28009;-80
2022/08/29 22:05:53;;;;;;;;;;;;;;;;;;8372663;27;29525;-80
2022/08/29 22:09:53;;;;;;;;;;;;;;;;;;8372554;27;28264;-80
2022/08/29 22:13:53;;;;;;;;;;;;;;;;;;8373471;28;28672;-80
2022/08/29 22:17:53;;;;;;;;;;;;;;;;;;8391918;27;27279;-80
2022/08/29 22:21:54;;;;;;;;;;;;;;;;;;8389882;27;27471;-80
2022/08/29 22:25:55;;;;;;;;;;;;;;;;;;8392204;28;28107;-80
2022/08/29 22:29:57;;;;;;;;;;;;;;;;;;8375995;27;28409;-80
2022/08/29 22:33:57;;;;;;;;;;;;;;;;;;8396725;28;27748;-80
2022/08/29 22:37:57;;;;;;;;;;;;;;;;;;8392322;27;27978;-80
2022/08/29 22:41:58;;;;;;;;;;;;;;;;;;8391077;27;27552;-79
2022/08/29 22:45:58;;;;;;;;;;;;;;;;;;8390551;27;27536;-79
2022/08/29 22:49:58;;;;;;;;;;;;;;;;;;8389863;28;27435;-80
2022/08/29 22:58:17;;;;;;;;;;;;;;;;;;8389517;27;27963;-80
2022/08/29 23:02:18;;;;;;;;;;;;;;;;;;8386586;27;28586;-80
2022/08/29 23:06:18;;;;;;;;;;;;;;;;;;8388487;27;27542;-80
2022/08/29 23:10:20;;;;;;;;;;;;;;;;;;8386584;28;28811;-80
2022/08/29 23:14:20;;;;;;;;;;;;;;;;;;8377151;28;28522;-80
2022/08/29 23:18:21;;;;;;;;;;;;;;;;;;8375503;28;28659;-79
2022/08/29 23:22:21;;;;;;;;;;;;;;;;;;8388539;28;27362;-80
2022/08/29 23:26:21;;;;;;;;;;;;;;;;;;8388675;28;27391;-80
2022/08/29 23:30:21;;;;;;;;;;;;;;;;;;8376396;28;28763;-80
2022/08/29 23:34:22;;;;;;;;;;;;;;;;;;8391687;27;27392;-79
2022/08/29 23:38:22;;;;;;;;;;;;;;;;;;8390969;28;27848;-80
2022/08/29 23:42:22;;;;;;;;;;;;;;;;;;8393287;27;27299;-79
2022/08/29 23:46:23;;;;;;;;;;;;;;;;;;8393246;27;27544;-80
2022/08/29 23:50:23;;;;;;;;;;;;;;;;;;8376655;28;27620;-80
2022/08/29 23:54:23;;;;;;;;;;;;;;;;;;8376947;28;28278;-80
2022/08/29 23:58:23;;;;;;;;;;;;;;;;;;8378617;27;27904;-80
